Free Trial

KraneShares Global Carbon Strategy ETF (KRBN) Institutional Ownership

KraneShares Global Carbon Strategy ETF logo
$32.23 +0.36 (+1.13%)
As of 05/5/2026 04:10 PM Eastern

Institutional Ownership Changes (13F Filings) for KraneShares Global Carbon Strategy ETF (NYSEARCA:KRBN)

Number of
Institutional Buyers
(last 12 months)
18
Total
Institutional Inflows
(last 12 months)
$24.75M
Number of
Institutional Sellers
(last 12 months)
17
Total
Institutional Outflows
(last 12 months)
$12.62M
Get KRBN Insider Trade Alerts

Want to know when executives and insiders are buying or selling KraneShares Global Carbon Strategy ETF stock? Sign up for InsiderTrades.com's daily newsletter to get the latest insider transactions delivered to your inbox daily.

SMS is currently available in Australia, Belgium, Canada, France, Germany, Ireland, Italy, New Zealand, the Netherlands, Singapore, South Africa, Spain, Switzerland, the United Kingdom, and the United States. By entering your phone number and clicking the sign-up button, you agree to receive periodic text messages from MarketBeat at the phone number you submitted, including texts that may be sent using an automatic telephone dialing system. Message and data rates may apply. Message frequency will vary. Messages will consist of stock alerts, news stories, and partner advertisements/offers. Consent is not a condition of the purchase of any goods or services. Text HELP for help/customer support. Unsubscribe at any time by replying "STOP" to any text message that you receive from MarketBeat or by visiting our mailing preferences page. Read our full terms of service and privacy policy.
Skip Chart & View Institutional Buying and Selling Data

KRBN Institutional Buying and Selling by Quarter

KraneShares Global Carbon Strategy ETF Major Shareholders & Ownership History

Reporting DateMajor Shareholder NameShares HeldMarket Value% of PortfolioQuarterly Change in SharesOwnership in CompanyDetails
5/5/2026Wealthfront Advisers LLC8,962$266K0.0%+9.6%0.204%
4/28/2026 Ascentis Independent Advisors23,189$688K0.1%N/A0.539%
4/27/2026 PFG Investments LLC13,344$396K0.0%-4.0%0.310%
4/21/2026 Maridea Wealth Management LLC9,364$278K0.0%-30.1%0.218%
3/17/2026Rockefeller Capital Management L.P.976$35K0.0%+184.5%0.020%
2/13/2026 Kestra Advisory Services LLC969$34K0.0%N/A0.020%
2/12/2026Jane Street Group LLC93,719$3.32M0.0%+123.3%1.913%
2/12/2026Riverwater Partners LLC91,505$3.24M1.3%+3.0%1.867%
2/11/2026T3 Companies LLC31,334$1.11M1.4%N/A0.639%
2/6/2026 Csenge Advisory Group8,126$288K0.0%N/A0.166%
1/30/2026Wealthfront Advisers LLC8,176$289K0.0%-9.3%0.164%
1/27/2026 Q3 Asset Management107,196$3.79M0.9%N/A2.144%
1/26/2026 PFG Investments LLC13,902$492K0.0%+21.0%0.273%
1/21/2026Prime Capital Investment Advisors LLC35,597$1.26M0.0%N/A0.712%
1/16/2026 Perigon Wealth Management LLC9,845$349K0.0%-22.6%0.197%
1/16/2026 Sharp Wealth Advisory LLC10,136$359K0.2%-8.5%0.203%
1/9/2026 SG Americas Securities LLC20,000$708K0.0%-71.4%0.385%
1/1/2026JPMorgan Chase & Co.12,655$410K0.0%-3.6%0.253%
11/20/2025WBI Investments LLC101,677$3.29M0.8%+51.0%2.034%
11/17/2025Susquehanna International Group LLP35,608$1.15M0.0%N/A0.712%
11/17/2025Flow Traders U.S. LLC155,250$5.03M0.2%+203.9%3.105%
11/7/2025 Maridea Wealth Management LLC13,211$449K0.1%N/A0.264%
11/7/2025JPMorgan Chase & Co.12,655$410K0.0%-3.6%0.253%
11/6/2025Wealthfront Advisers LLC9,010$292K0.0%-3.7%0.180%
11/3/2025Florin Court Capital LLP31,639$1.03M0.8%-36.4%0.620%
10/31/2025Riverwater Partners LLC88,835$2.88M1.2%-2.5%1.742%
10/31/2025 PFG Investments LLC11,488$372K0.0%+6.6%0.225%
10/28/2025 Sharp Financial Services LLC11,077$359K0.2%+12.8%0.217%
10/23/2025Ethos Financial Group LLC7,696$249K0.0%-72.9%0.154%
10/17/2025 Perigon Wealth Management LLC12,719$412K0.0%-4.5%0.254%
10/14/2025 Farther Finance Advisors LLC1,500$49K0.0%N/A0.029%
8/14/2025Jane Street Group LLC45,076$1.34M0.0%-74.6%0.850%
8/13/2025Flow Traders U.S. LLC51,078$1.52M0.1%-74.1%0.964%
8/12/2025Horizon Kinetics Asset Management LLC9,486$282K0.0%-29.9%0.179%
8/12/2025JPMorgan Chase & Co.13,125$390K0.0%-5.2%0.248%
8/11/2025WBI Investments LLC67,357$2M0.5%+45.0%1.259%
8/6/2025Florin Court Capital LLP49,718$1.48M1.5%N/A0.929%
8/6/2025Ethos Financial Group LLC28,431$843K0.1%-18.9%0.531%
8/1/2025Riverwater Partners LLC91,135$2.71M1.3%+2.0%1.703%
7/31/2025Wealthfront Advisers LLC9,357$278K0.0%-15.8%0.175%
7/25/2025 Sharp Financial Services LLC9,823$292K0.2%-16.4%0.184%
7/22/2025Kraematon Investment Advisors Inc.15,920$473K0.4%-36.5%0.298%
7/18/2025 PFG Investments LLC10,778$320K0.0%N/A0.201%
7/16/2025 Perigon Wealth Management LLC13,312$395K0.0%-4.4%0.249%
5/22/2025WBI Investments LLC46,452$1.31M0.3%N/A0.860%
5/19/2025Jane Street Group LLC177,537$5.01M0.0%+26.0%3.288%
5/14/2025Flow Traders U.S. LLC197,293$5.57M0.2%+434.5%3.654%
5/12/2025Virtu Financial LLC7,264$205K0.0%-36.6%0.131%
5/12/2025National Bank of Canada FI6,441$181K0.0%-10.7%0.116%
5/5/2025Private Advisor Group LLC18,896$533K0.0%-3.3%0.340%
5/2/2025Wealthfront Advisers LLC11,115$314K0.0%-7.3%0.200%
4/29/2025Sharp Financial Services LLC11,751$332K0.3%+4.7%0.212%
4/21/2025Riverwater Partners LLC89,383$2.52M1.3%+7.0%1.611%
4/16/2025Wealth Enhancement Advisory Services LLC30,422$858K0.0%+10.8%0.499%
4/15/2025SG Americas Securities LLC40,000$1.13M0.0%-147.1%0.656%
4/14/2025Kraematon Investment Advisors Inc.25,062$707K0.7%-20.0%0.411%
3/17/2025Wealth Enhancement Advisory Services LLC27,448$805K0.0%-32.7%0.450%
3/12/2025Centaurus Financial Inc.4,345$127K0.0%-16.2%0.069%
2/17/2025Ameriprise Financial Inc.21,264$623K0.0%N/A0.219%
2/14/2025Knightsbridge Asset Management LLC6,960$204K0.0%N/A0.072%
2/14/2025Two Sigma Securities LLC7,768$228K0.0%N/A0.080%
2/14/2025Kayne Anderson Rudnick Investment Management LLC1,746$51K0.0%-44.2%0.018%
2/13/2025Bank of Montreal Can2,035$60K0.0%-98.4%0.021%
2/13/2025Riverwater Partners LLC83,541$2.45M1.2%+23.3%0.861%
2/12/2025National Bank of Canada FI7,212$211K0.0%-22.9%0.074%
2/12/2025JPMorgan Chase & Co.17,002$498K0.0%-5.9%0.175%
2/11/2025Virtu Financial LLC11,465$336K0.0%+53.1%0.118%
2/10/2025Horizon Kinetics Asset Management LLC25,010$733K0.0%-11.0%0.258%
2/7/2025Wealthfront Advisers LLC3,452$101K0.0%-70.5%0.036%
2/7/2025AGF Management Ltd.14,018$411K0.0%-43.2%0.145%
2/6/2025Ethos Financial Group LLC35,077$1.03M0.1%-12.4%0.362%
2/3/2025Private Advisor Group LLC19,547$573K0.0%-6.9%0.202%
1/30/2025Spinnaker Trust26,936$789K0.0%-55.9%0.278%
1/30/2025Figure 8 Investment Strategies LLC16,552$485K0.5%N/A0.171%
1/21/2025Geneos Wealth Management Inc.925$27K0.0%-48.6%0.010%
1/17/2025Sharp Financial Services LLC11,227$329K0.2%-26.3%0.116%
1/15/2025Kraematon Investment Advisors Inc.31,321$918K0.9%-2.4%0.323%
12/26/2024JPMorgan Chase & Co.18,064$572K0.0%-4.6%0.186%
11/20/2024Virtu Financial LLC7,491$237K0.0%N/A0.077%
11/15/2024National Bank of Canada FI9,353$296K0.0%-8.9%0.096%
11/15/2024Jane Street Group LLC140,797$4.46M0.0%-27.3%1.452%
11/14/2024Flow Traders U.S. LLC91,220$2.89M0.1%N/A0.940%
11/13/2024Bank of Montreal Can129,630$4.14M0.0%+4,376.2%1.336%
11/13/2024Horizon Kinetics Asset Management LLC28,109$890K0.0%-9.7%0.290%
11/12/2024Summit Trail Advisors LLC196,178$6.21M0.2%-39.9%2.022%
11/6/2024Palo Alto Wealth Advisors LLC50,391$1.57M0.7%-16.4%0.519%
10/31/2024Spinnaker Trust61,017$1.93M0.1%-2.3%0.629%
10/24/2024Wealth Enhancement Advisory Services LLC40,805$1.29M0.0%-1.8%0.421%
10/22/2024Private Advisor Group LLC20,992$665K0.0%+7.6%0.216%
9/23/2024Centaurus Financial Inc.5,456$178K0.0%-5.8%0.056%
8/30/2024Creekside Partners10,767$350K0.2%N/A0.111%
8/15/2024Toronto Dominion Bank4,000$130K0.0%-33.3%0.041%
8/13/2024Kayne Anderson Rudnick Investment Management LLC5,324$173K0.0%-75.4%0.055%
8/13/2024Summit Trail Advisors LLC326,497$10.62M0.3%+305.0%3.366%
8/5/2024Private Advisor Group LLC19,516$635K0.0%+10.1%0.201%
8/3/2024National Bank of Canada FI10,266$336K0.0%-3.8%0.106%
7/31/2024Spinnaker Trust62,465$2.03M0.1%-37.7%0.644%
7/31/2024Picton Mahoney Asset Management1,200$39K0.0%-45.5%0.012%
7/19/2024Riverwater Partners LLC67,656$2.20M1.6%-0.6%0.697%
7/16/2024Wealth Enhancement Advisory Services LLC41,564$1.35M0.0%+1.0%0.428%


KRBN Institutional Ownership - Frequently Asked Questions

Who are the largest shareholders of KRBN shares?

During the previous two years, 45 institutional investors and hedge funds held shares of KraneShares Global Carbon Strategy ETF. The most heavily invested institutionals were Summit Trail Advisors LLC ($6.21M), Flow Traders U.S. LLC ($5.03M), Q3 Asset Management ($3.79M), Jane Street Group LLC ($3.32M), WBI Investments LLC ($3.29M), Riverwater Partners LLC ($3.24M), and Palo Alto Wealth Advisors LLC ($1.57M).Learn more on KraneShares Global Carbon Strategy ETF's institutional investors.

Which institutional investors have been buying KraneShares Global Carbon Strategy ETF's stock?

Of the 31 institutional investors that purchased KraneShares Global Carbon Strategy ETF's stock in the last 24 months, the following investors and hedge funds have bought the highest volume of shares: Flow Traders U.S. LLC ($355.77K), Summit Trail Advisors LLC ($245.88K), Bank of Montreal Can ($126.73K), SG Americas Securities LLC ($125K), Q3 Asset Management ($107.20K), WBI Investments LLC ($101.68K), and Jane Street Group LLC ($88.43K).

How much institutional buying is happening at KraneShares Global Carbon Strategy ETF?

Institutional investors have bought a total of 782,107 shares in the last 24 months. This purchase volume represents approximately $24.75M in transactions.

Which of KraneShares Global Carbon Strategy ETF's major shareholders have been selling company stock?

Of the 17 institutional investors that sold KraneShares Global Carbon Strategy ETF's stock in the last 24 months, the following investors and hedge funds have sold the highest volume of shares: Flow Traders U.S. LLC ($146.22K), Jane Street Group LLC ($132.46K), SG Americas Securities LLC ($50K), Ethos Financial Group LLC ($27.38K), Florin Court Capital LLP ($18.08K), Kraematon Investment Advisors Inc. ($9.14K), and Virtu Financial LLC ($4.20K).

How much institutional selling is happening at KraneShares Global Carbon Strategy ETF?

Institutional investors have sold a total of 410,730 shares in the last 24 months. This volume of shares sold represents approximately $12.62M in transactions.



This page (NYSEARCA:KRBN) was last updated on 5/6/2026 by MarketBeat.com Staff.
From Our Partners